Time;durP1;ratioP1;P1;durP2;ratioP2;P2;SDS_P1;SDS_P2;PMS_P1;PMS_P2;Temp;Humidity;BMP_temperature;BMP_pressure;BME280_temperature;BME280_humidity;BME280_pressure;Samples;Min_cycle;Max_cycle;Signal;HPM_P1;HPM_P2
2021/11/26 00:01:06;;;;;;;12.63;4.37;;;7.40;81.60;;;;;;5081803;28;20211;-82
2021/11/26 00:03:32;;;;;;;10.67;5.40;;;7.50;81.70;;;;;;5099728;28;20425;-82
2021/11/26 00:05:59;;;;;;;20.43;4.93;;;7.40;81.70;;;;;;5085487;28;20409;-81
2021/11/26 00:08:24;;;;;;;9.93;3.25;;;7.40;81.80;;;;;;5121486;28;20485;-83
2021/11/26 00:10:50;;;;;;;9.87;3.13;;;7.40;82.00;;;;;;5102938;28;20198;-82
2021/11/26 00:13:16;;;;;;;7.50;2.90;;;7.40;82.10;;;;;;5100969;28;20214;-82
2021/11/26 00:15:42;;;;;;;8.00;4.05;;;7.50;82.50;;;;;;5107540;28;20437;-83
2021/11/26 00:18:20;;;;;;;9.00;2.92;;;7.40;82.70;;;;;;5099838;28;20232;-83
2021/11/26 00:20:48;;;;;;;12.30;2.92;;;7.50;83.00;;;;;;5114137;28;20220;-82
2021/11/26 00:23:14;;;;;;;8.95;3.10;;;7.50;83.10;;;;;;5087887;28;20183;-82
2021/11/26 00:25:41;;;;;;;6.18;2.30;;;7.40;83.20;;;;;;5083277;28;20287;-82
2021/11/26 00:28:07;;;;;;;9.50;2.63;;;7.40;83.40;;;;;;5112108;28;20263;-82
2021/11/26 00:30:33;;;;;;;5.73;2.60;;;7.40;83.50;;;;;;5085169;28;20247;-81
2021/11/26 00:33:00;;;;;;;5.68;2.67;;;7.50;83.60;;;;;;5082199;28;20432;-83
2021/11/26 00:35:26;;;;;;;7.80;2.70;;;7.40;83.50;;;;;;5082257;28;20335;-82
2021/11/26 00:37:54;;;;;;;8.20;2.47;;;7.40;83.60;;;;;;5099011;28;20241;-82
2021/11/26 00:40:20;;;;;;;5.90;2.03;;;7.50;83.70;;;;;;5078046;28;20567;-83
2021/11/26 00:42:46;;;;;;;4.63;2.17;;;7.50;83.70;;;;;;5094992;28;20172;-82
2021/11/26 00:45:14;;;;;;;6.03;2.90;;;7.50;83.60;;;;;;5077008;28;20217;-83
2021/11/26 00:47:41;;;;;;;11.45;2.40;;;7.40;83.70;;;;;;5092668;28;20316;-81
2021/11/26 00:50:08;;;;;;;2.55;1.35;;;7.40;84.00;;;;;;5099810;28;20183;-83
2021/11/26 00:52:34;;;;;;;2.88;1.50;;;7.50;84.30;;;;;;5099247;28;20179;-82
2021/11/26 00:55:00;;;;;;;9.55;2.20;;;7.50;84.30;;;;;;5083988;28;20214;-82
2021/11/26 00:57:26;;;;;;;5.68;2.08;;;7.50;84.30;;;;;;5078560;28;20220;-82
2021/11/26 00:59:52;;;;;;;10.95;2.67;;;7.60;84.30;;;;;;5078423;28;20252;-83
2021/11/26 01:02:18;;;;;;;7.97;2.27;;;7.50;84.10;;;;;;5096028;28;20659;-83
2021/11/26 01:04:44;;;;;;;4.50;2.23;;;7.50;84.20;;;;;;5075911;28;20967;-83
2021/11/26 01:07:10;;;;;;;6.10;2.70;;;7.40;84.20;;;;;;5094539;28;20176;-83
2021/11/26 01:09:35;;;;;;;3.50;1.83;;;7.40;84.40;;;;;;5080262;28;20482;-82
2021/11/26 01:12:02;;;;;;;7.33;2.63;;;7.30;84.50;;;;;;5089857;28;20432;-83
2021/11/26 01:14:28;;;;;;;4.75;2.20;;;7.40;84.60;;;;;;5070589;28;20461;-83
2021/11/26 01:16:54;;;;;;;4.90;2.33;;;7.30;84.80;;;;;;5090849;28;20187;-82
2021/11/26 01:19:21;;;;;;;11.63;2.45;;;7.40;84.90;;;;;;5098847;28;20414;-82
2021/11/26 01:21:47;;;;;;;4.35;2.05;;;7.30;85.00;;;;;;5098014;28;20229;-82
2021/11/26 01:24:13;;;;;;;9.27;2.25;;;7.30;85.00;;;;;;5083067;28;20183;-82
2021/11/26 01:26:39;;;;;;;3.55;2.50;;;7.30;85.10;;;;;;5093414;28;20259;-82
2021/11/26 01:29:05;;;;;;;7.00;2.07;;;7.30;85.10;;;;;;5080259;28;20207;-83
2021/11/26 01:31:33;;;;;;;2.90;1.70;;;7.30;85.20;;;;;;5089116;28;20796;-83
2021/11/26 01:33:59;;;;;;;5.03;1.90;;;7.40;85.20;;;;;;5079407;28;20454;-83
2021/11/26 01:36:25;;;;;;;2.93;2.00;;;7.30;85.10;;;;;;5080408;28;20222;-82
2021/11/26 01:38:51;;;;;;;3.20;1.70;;;7.40;85.00;;;;;;5106509;28;20259;-82
2021/11/26 01:41:17;;;;;;;6.03;1.60;;;7.30;84.90;;;;;;5080124;28;20207;-83
2021/11/26 01:43:42;;;;;;;7.10;1.93;;;7.20;84.70;;;;;;5079585;28;20192;-82
2021/11/26 01:46:09;;;;;;;3.83;1.83;;;7.30;84.80;;;;;;5096365;28;20512;-82
2021/11/26 01:48:37;;;;;;;7.15;2.05;;;7.20;84.50;;;;;;5088281;28;20422;-82
2021/11/26 01:51:03;;;;;;;5.53;1.30;;;7.30;84.40;;;;;;5079864;28;20541;-82
2021/11/26 01:53:29;;;;;;;5.00;1.77;;;7.30;84.00;;;;;;5079503;28;20233;-82
2021/11/26 01:55:55;;;;;;;4.33;2.20;;;7.30;84.60;;;;;;5080319;28;20276;-82
2021/11/26 01:58:21;;;;;;;9.00;2.35;;;7.30;83.80;;;;;;5080031;28;20851;-82
2021/11/26 02:00:48;;;;;;;3.67;1.63;;;7.40;83.70;;;;;;5090126;28;20195;-81
2021/11/26 02:03:15;;;;;;;9.60;1.90;;;7.30;83.80;;;;;;5102561;28;20180;-82
2021/11/26 02:05:42;;;;;;;11.82;3.15;;;7.40;83.80;;;;;;5105268;28;20204;-82
2021/11/26 02:08:09;;;;;;;2.10;1.48;;;7.40;83.60;;;;;;5079685;28;20536;-83
2021/11/26 02:10:36;;;;;;;8.57;2.40;;;7.30;83.80;;;;;;5079589;28;20180;-82
2021/11/26 02:13:02;;;;;;;4.20;1.63;;;7.40;84.00;;;;;;5096051;28;20186;-83
2021/11/26 02:15:29;;;;;;;3.67;1.80;;;7.30;84.10;;;;;;5084188;28;20580;-83
2021/11/26 02:17:57;;;;;;;7.75;1.77;;;7.20;84.20;;;;;;5079555;28;20200;-83
2021/11/26 02:20:25;;;;;;;5.82;2.50;;;7.30;84.50;;;;;;5087418;28;20187;-82
2021/11/26 02:22:54;;;;;;;4.90;2.78;;;7.30;84.60;;;;;;5097922;28;20662;-82
2021/11/26 02:25:21;;;;;;;6.25;2.05;;;7.30;84.60;;;;;;5078897;28;20247;-82
2021/11/26 02:27:47;;;;;;;10.15;1.73;;;7.20;84.70;;;;;;5097477;28;20860;-82
2021/11/26 02:30:16;;;;;;;3.47;1.73;;;7.30;84.90;;;;;;5070870;28;20191;-82
2021/11/26 02:32:57;;;;;;;3.88;1.60;;;7.30;84.90;;;;;;5095234;28;20183;-83
2021/11/26 02:35:25;;;;;;;7.75;2.13;;;7.40;84.90;;;;;;5080712;28;20211;-83
2021/11/26 02:37:51;;;;;;;2.10;1.75;;;7.40;84.80;;;;;;5100508;28;20180;-83
2021/11/26 02:40:19;;;;;;;13.65;2.35;;;7.30;84.90;;;;;;5090476;28;20194;-82
2021/11/26 02:42:47;;;;;;;6.32;1.75;;;7.30;85.00;;;;;;5101083;28;20200;-82
2021/11/26 02:45:14;;;;;;;6.72;2.03;;;7.30;85.00;;;;;;5099742;28;20208;-83
2021/11/26 02:47:40;;;;;;;3.90;1.30;;;7.30;84.90;;;;;;5082955;28;20530;-82
2021/11/26 02:50:09;;;;;;;6.63;1.55;;;7.30;84.80;;;;;;5091886;28;20209;-83
2021/11/26 02:52:36;;;;;;;4.78;1.50;;;7.30;84.90;;;;;;5117461;28;20183;-82
2021/11/26 02:55:05;;;;;;;7.22;1.98;;;7.30;84.90;;;;;;5109595;28;20248;-82
2021/11/26 02:57:32;;;;;;;9.13;2.50;;;7.30;85.10;;;;;;5078315;28;20185;-82
2021/11/26 02:59:58;;;;;;;9.25;2.55;;;7.30;85.10;;;;;;5087138;28;20655;-82
2021/11/26 03:02:24;;;;;;;8.18;3.38;;;7.30;85.10;;;;;;5094578;28;20686;-83
2021/11/26 03:04:50;;;;;;;10.20;5.17;;;7.60;84.90;;;;;;5108191;28;20200;-82
2021/11/26 03:07:16;;;;;;;16.52;5.68;;;7.80;84.40;;;;;;5102703;28;21001;-83
2021/11/26 03:09:42;;;;;;;18.40;6.30;;;7.70;84.30;;;;;;5110682;28;20184;-82
2021/11/26 03:12:09;;;;;;;23.27;6.33;;;7.70;84.00;;;;;;5084759;28;20432;-83
2021/11/26 03:14:35;;;;;;;13.68;5.03;;;7.50;83.90;;;;;;5084639;28;20464;-83
2021/11/26 03:17:02;;;;;;;20.27;6.15;;;7.40;83.80;;;;;;5085288;28;20200;-82
2021/11/26 03:19:29;;;;;;;18.48;6.60;;;7.30;84.00;;;;;;5094000;28;20183;-82
2021/11/26 03:21:55;;;;;;;24.02;7.07;;;7.50;84.10;;;;;;5114331;28;20195;-82
2021/11/26 03:24:21;;;;;;;20.23;8.07;;;7.50;83.90;;;;;;5091166;28;20257;-82
2021/11/26 03:26:46;;;;;;;19.73;7.80;;;7.60;84.00;;;;;;5112482;28;20453;-82
2021/11/26 03:29:12;;;;;;;19.63;7.70;;;7.60;84.00;;;;;;5091930;28;20274;-82
2021/11/26 03:31:38;;;;;;;22.90;8.03;;;7.60;84.00;;;;;;5086866;28;20653;-82
2021/11/26 03:34:04;;;;;;;21.23;7.50;;;7.50;84.10;;;;;;5111619;28;20535;-82
2021/11/26 03:36:30;;;;;;;20.20;7.03;;;7.80;84.00;;;;;;5089912;28;20425;-81
2021/11/26 03:38:56;;;;;;;20.60;6.07;;;8.00;83.60;;;;;;5088526;28;20282;-82
2021/11/26 03:41:22;;;;;;;15.20;6.50;;;8.00;83.30;;;;;;5099894;28;20215;-82
2021/11/26 03:43:48;;;;;;;12.55;6.22;;;8.10;83.10;;;;;;5065537;28;20222;-82
2021/11/26 03:46:16;;;;;;;18.30;5.37;;;8.00;82.70;;;;;;5079547;28;20172;-82
2021/11/26 03:48:42;;;;;;;10.40;5.55;;;7.90;82.50;;;;;;5081238;28;20183;-82
2021/11/26 03:51:07;;;;;;;16.55;5.40;;;7.80;82.70;;;;;;5112009;28;20602;-82
2021/11/26 03:53:33;;;;;;;18.03;5.90;;;7.80;82.70;;;;;;5101063;28;20289;-82
2021/11/26 03:55:59;;;;;;;13.90;5.33;;;7.80;82.80;;;;;;5085991;28;20187;-82
2021/11/26 03:58:25;;;;;;;18.77;6.60;;;7.70;83.00;;;;;;5104438;28;20908;-82
2021/11/26 04:00:50;;;;;;;20.83;7.73;;;7.50;83.10;;;;;;5097900;28;20238;-82
2021/11/26 04:03:16;;;;;;;20.30;7.00;;;7.60;83.30;;;;;;5102127;28;20171;-82
2021/11/26 04:05:42;;;;;;;32.10;8.90;;;7.70;83.30;;;;;;5106479;28;20203;-82
2021/11/26 04:08:08;;;;;;;17.77;6.82;;;7.60;83.30;;;;;;5108946;28;20477;-83
2021/11/26 04:10:35;;;;;;;19.57;6.20;;;7.50;83.40;;;;;;5100793;28;20203;-82
2021/11/26 04:13:01;;;;;;;16.77;8.75;;;7.40;83.50;;;;;;5099667;28;20203;-83
2021/11/26 04:15:27;;;;;;;19.37;7.40;;;7.60;83.60;;;;;;5095049;28;20755;-82
2021/11/26 04:17:55;;;;;;;20.80;7.80;;;7.50;83.50;;;;;;5106760;28;20203;-82
2021/11/26 04:20:21;;;;;;;15.63;7.28;;;7.40;83.60;;;;;;5091742;28;20422;-83
2021/11/26 04:22:47;;;;;;;22.47;7.40;;;7.30;83.70;;;;;;5100144;28;20207;-83
2021/11/26 04:25:16;;;;;;;35.47;7.28;;;7.40;83.80;;;;;;5104401;28;20474;-82
2021/11/26 04:27:43;;;;;;;29.05;6.60;;;7.40;83.70;;;;;;5088966;28;20295;-82
2021/11/26 04:30:10;;;;;;;13.93;6.55;;;7.30;83.60;;;;;;5097658;28;20200;-82
2021/11/26 04:32:36;;;;;;;12.50;6.72;;;7.40;83.60;;;;;;5089166;28;20203;-82
2021/11/26 04:35:03;;;;;;;29.80;6.40;;;7.30;83.20;;;;;;5079754;28;20211;-83
2021/11/26 04:37:28;;;;;;;23.70;5.70;;;7.30;83.30;;;;;;5089598;28;20430;-83
2021/11/26 04:39:54;;;;;;;18.47;6.43;;;7.10;83.40;;;;;;5080395;28;20194;-82
2021/11/26 04:42:20;;;;;;;13.57;5.67;;;7.20;83.60;;;;;;5084839;28;20196;-81
2021/11/26 04:44:46;;;;;;;20.53;5.43;;;7.20;83.60;;;;;;5097913;28;20677;-81
2021/11/26 04:47:11;;;;;;;27.43;6.43;;;7.10;83.80;;;;;;5099671;28;20409;-81
2021/11/26 04:49:37;;;;;;;16.33;5.63;;;7.20;83.50;;;;;;5095349;28;20171;-81
2021/11/26 04:52:04;;;;;;;10.50;4.63;;;7.00;83.50;;;;;;5080567;28;20179;-82
2021/11/26 04:54:31;;;;;;;9.85;5.22;;;6.90;83.80;;;;;;5105316;28;20203;-82
2021/11/26 04:56:57;;;;;;;14.23;5.65;;;6.90;84.10;;;;;;5097831;28;20187;-82
2021/11/26 04:59:23;;;;;;;18.07;5.40;;;6.90;84.10;;;;;;5083522;28;20214;-82
2021/11/26 05:01:49;;;;;;;18.42;7.85;;;6.90;84.00;;;;;;5085966;28;20485;-82
2021/11/26 05:04:15;;;;;;;19.92;5.93;;;6.80;83.60;;;;;;5080055;28;20191;-82
2021/11/26 05:06:41;;;;;;;18.90;5.70;;;6.80;83.60;;;;;;5085808;28;20481;-82
2021/11/26 05:09:09;;;;;;;14.05;4.88;;;6.70;83.40;;;;;;5097546;28;20781;-82
2021/11/26 05:11:35;;;;;;;11.57;5.35;;;6.70;83.40;;;;;;5079397;28;20187;-82
2021/11/26 05:14:03;;;;;;;16.05;4.78;;;6.60;83.30;;;;;;5061570;28;20208;-82
2021/11/26 05:16:29;;;;;;;9.05;5.55;;;6.70;83.40;;;;;;5099793;28;20199;-82
2021/11/26 05:18:55;;;;;;;26.33;5.57;;;6.70;83.40;;;;;;5083714;28;20626;-82
2021/11/26 05:21:21;;;;;;;11.70;4.07;;;6.70;83.30;;;;;;5107239;28;20452;-81
2021/11/26 05:23:46;;;;;;;8.80;3.20;;;6.70;83.00;;;;;;5117600;28;20478;-81
2021/11/26 05:26:13;;;;;;;10.50;4.80;;;6.70;83.00;;;;;;5118124;28;20626;-82
2021/11/26 05:28:39;;;;;;;9.60;4.13;;;6.80;82.90;;;;;;5096431;28;20180;-81
2021/11/26 05:31:05;;;;;;;12.73;4.80;;;6.80;82.50;;;;;;5086955;28;20186;-82
2021/11/26 05:33:31;;;;;;;13.52;4.60;;;6.80;82.30;;;;;;5097221;28;20483;-82
2021/11/26 05:35:58;;;;;;;16.38;5.50;;;6.70;82.10;;;;;;5079817;28;20605;-82
2021/11/26 05:38:24;;;;;;;14.88;5.10;;;6.50;82.10;;;;;;5098999;28;20233;-83
2021/11/26 05:40:51;;;;;;;10.05;3.83;;;6.50;82.20;;;;;;5087388;28;20204;-83
2021/11/26 05:43:17;;;;;;;11.50;4.15;;;6.60;82.30;;;;;;5098173;28;20206;-83
2021/11/26 05:45:44;;;;;;;14.60;4.00;;;6.70;82.20;;;;;;5079380;28;20180;-83
2021/11/26 05:48:10;;;;;;;11.90;5.45;;;6.50;82.10;;;;;;5094224;28;20179;-82
2021/11/26 05:50:37;;;;;;;13.27;4.63;;;6.50;82.20;;;;;;5098827;28;20270;-82
2021/11/26 05:53:04;;;;;;;11.10;4.45;;;6.40;82.20;;;;;;5079618;28;20172;-82
2021/11/26 05:55:31;;;;;;;17.55;4.20;;;6.40;82.30;;;;;;5087671;28;20203;-83
2021/11/26 05:57:58;;;;;;;10.93;4.20;;;6.40;82.30;;;;;;5100626;28;20205;-82
2021/11/26 06:00:25;;;;;;;14.25;5.22;;;6.40;82.20;;;;;;5110869;28;20180;-82
2021/11/26 06:02:52;;;;;;;13.35;4.40;;;6.40;82.30;;;;;;5084736;28;20673;-83
2021/11/26 06:05:19;;;;;;;15.68;5.00;;;6.50;82.20;;;;;;5078900;28;20215;-81
2021/11/26 06:07:45;;;;;;;19.08;4.55;;;6.50;82.30;;;;;;5088131;28;20172;-81
2021/11/26 06:10:13;;;;;;;9.05;4.88;;;6.60;82.10;;;;;;5102416;28;20221;-81
2021/11/26 06:12:40;;;;;;;11.02;4.50;;;6.50;81.80;;;;;;5084063;28;20179;-81
2021/11/26 06:15:07;;;;;;;16.33;5.43;;;6.60;81.90;;;;;;5085982;28;20211;-81
2021/11/26 06:17:33;;;;;;;18.58;6.03;;;6.70;81.80;;;;;;5096210;28;20200;-81
2021/11/26 06:19:58;;;;;;;10.50;4.40;;;6.80;81.20;;;;;;5102214;28;20184;-81
2021/11/26 06:22:24;;;;;;;14.57;5.37;;;6.70;81.00;;;;;;5083590;28;20289;-81
2021/11/26 06:24:50;;;;;;;11.97;4.50;;;6.80;80.70;;;;;;5100978;28;20227;-81
2021/11/26 06:27:16;;;;;;;12.23;4.90;;;6.80;80.40;;;;;;5083993;28;20519;-81
2021/11/26 06:29:41;;;;;;;15.53;5.87;;;6.60;80.50;;;;;;5108837;28;20410;-81
2021/11/26 06:32:07;;;;;;;15.37;5.40;;;6.50;80.70;;;;;;5082641;28;20429;-81
2021/11/26 06:34:33;;;;;;;20.90;5.40;;;6.50;80.90;;;;;;5082228;28;20196;-82
2021/11/26 06:36:59;;;;;;;11.27;4.63;;;6.60;80.70;;;;;;5088084;28;20856;-81
2021/11/26 06:39:25;;;;;;;18.52;4.65;;;6.60;80.70;;;;;;5105823;28;20452;-82
2021/11/26 06:41:51;;;;;;;13.52;5.00;;;6.50;80.70;;;;;;5103833;28;20207;-82
2021/11/26 06:44:18;;;;;;;10.18;4.80;;;6.70;80.40;;;;;;5101057;28;20700;-81
2021/11/26 06:46:44;;;;;;;17.77;5.07;;;6.60;79.20;;;;;;5090831;28;20183;-82
2021/11/26 06:49:10;;;;;;;10.57;4.30;;;6.70;79.40;;;;;;5099460;28;20866;-81
2021/11/26 06:51:35;;;;;;;13.07;5.30;;;6.70;79.30;;;;;;5101104;28;20418;-82
2021/11/26 06:54:01;;;;;;;20.80;5.53;;;6.70;79.50;;;;;;5090106;28;20963;-81
2021/11/26 06:56:27;;;;;;;17.63;4.70;;;6.70;79.70;;;;;;5081120;28;20620;-81
2021/11/26 06:58:57;;;;;;;7.53;3.90;;;6.60;79.60;;;;;;5107814;28;20417;-82
2021/11/26 07:01:26;;;;;;;13.82;5.00;;;6.60;79.80;;;;;;5099755;28;20445;-82
2021/11/26 07:03:54;;;;;;;19.98;5.40;;;6.60;79.70;;;;;;5081201;28;20204;-84
2021/11/26 07:06:20;;;;;;;8.68;4.63;;;6.60;79.50;;;;;;5082128;28;20180;-84
2021/11/26 07:08:46;;;;;;;11.45;4.18;;;6.60;79.10;;;;;;5099144;28;20213;-84
2021/11/26 07:11:12;;;;;;;15.13;5.53;;;6.60;78.70;;;;;;5091803;28;20376;-85
2021/11/26 07:13:38;;;;;;;7.10;4.33;;;6.60;77.80;;;;;;5103122;28;20924;-84
2021/11/26 07:16:04;;;;;;;10.97;4.60;;;6.50;77.80;;;;;;5093252;28;20448;-84
2021/11/26 07:18:30;;;;;;;6.68;4.30;;;6.60;77.70;;;;;;5088612;28;20247;-84
2021/11/26 07:20:56;;;;;;;8.27;4.40;;;6.60;77.40;;;;;;5098361;28;20231;-81
2021/11/26 07:23:22;;;;;;;18.30;4.80;;;6.60;77.30;;;;;;5084922;28;20909;-83
2021/11/26 07:25:48;;;;;;;6.15;5.03;;;6.70;78.10;;;;;;5091098;28;20230;-81
2021/11/26 07:28:14;;;;;;;7.60;4.37;;;6.70;77.00;;;;;;5092008;28;20183;-82
2021/11/26 07:30:40;;;;;;;5.87;3.67;;;6.60;76.80;;;;;;5116173;28;20409;-82
2021/11/26 07:33:07;;;;;;;9.75;4.45;;;6.50;76.90;;;;;;5100507;28;20912;-82
2021/11/26 07:35:33;;;;;;;9.15;4.25;;;6.50;77.00;;;;;;5108660;28;20285;-82
2021/11/26 07:37:59;;;;;;;5.68;3.75;;;6.60;76.90;;;;;;5097594;28;20215;-81
2021/11/26 07:40:25;;;;;;;16.08;4.82;;;6.60;76.40;;;;;;5102549;28;20176;-81
2021/11/26 07:42:51;;;;;;;9.73;3.43;;;6.60;75.70;;;;;;5083715;28;20199;-81
2021/11/26 07:45:17;;;;;;;7.75;3.75;;;6.70;75.60;;;;;;5101879;28;20426;-81
2021/11/26 07:47:44;;;;;;;14.40;3.60;;;6.70;75.60;;;;;;5084579;28;20262;-81
2021/11/26 07:50:12;;;;;;;9.98;4.15;;;6.50;75.50;;;;;;5084694;28;20160;-81
2021/11/26 07:52:38;;;;;;;11.50;4.07;;;6.50;76.60;;;;;;5103413;28;20176;-81
2021/11/26 07:55:05;;;;;;;12.63;4.60;;;6.70;76.00;;;;;;5084493;28;20292;-81
2021/11/26 07:57:32;;;;;;;14.60;3.75;;;7.00;75.60;;;;;;5084512;28;20616;-82
2021/11/26 07:59:58;;;;;;;12.38;4.57;;;6.90;77.10;;;;;;5067674;28;20309;-81
2021/11/26 08:02:24;;;;;;;10.73;4.15;;;7.00;78.40;;;;;;5090553;28;20287;-82
2021/11/26 08:04:50;;;;;;;9.27;4.50;;;6.80;78.20;;;;;;5095456;28;20218;-81
2021/11/26 08:07:16;;;;;;;11.90;4.37;;;7.00;78.90;;;;;;5098787;28;20414;-81
2021/11/26 08:09:43;;;;;;;11.23;4.77;;;7.20;78.60;;;;;;5098600;28;20426;-82
2021/11/26 08:12:09;;;;;;;7.53;3.95;;;7.30;79.70;;;;;;5099144;28;20418;-81
2021/11/26 08:14:34;;;;;;;9.65;3.78;;;7.40;77.70;;;;;;5114906;28;20242;-81
2021/11/26 08:17:00;;;;;;;8.13;3.83;;;7.50;78.20;;;;;;5097944;28;20180;-81
2021/11/26 08:19:26;;;;;;;9.40;3.53;;;7.30;75.50;;;;;;5094104;28;20797;-81
2021/11/26 08:21:54;;;;;;;17.30;3.70;;;7.40;75.30;;;;;;5083591;28;20493;-81
2021/11/26 08:24:21;;;;;;;13.85;3.63;;;7.40;74.60;;;;;;5082736;28;20430;-80
2021/11/26 08:26:47;;;;;;;10.23;3.53;;;7.40;74.90;;;;;;5083234;28;20267;-82
2021/11/26 08:29:13;;;;;;;10.57;4.22;;;7.50;75.30;;;;;;5101567;28;20166;-80
2021/11/26 08:31:40;;;;;;;9.98;4.75;;;7.50;75.10;;;;;;5100571;28;20180;-82
2021/11/26 08:34:07;;;;;;;14.32;4.22;;;7.50;74.40;;;;;;5082189;28;20210;-81
2021/11/26 08:36:33;;;;;;;12.30;2.85;;;7.50;73.80;;;;;;5082503;28;20269;-81
2021/11/26 08:39:00;;;;;;;15.32;4.68;;;7.50;74.30;;;;;;5100430;28;20166;-81
2021/11/26 08:41:26;;;;;;;10.25;3.45;;;7.60;74.60;;;;;;5082353;28;20207;-80
2021/11/26 08:43:53;;;;;;;10.43;3.97;;;7.70;73.10;;;;;;5099452;28;20598;-80
2021/11/26 08:46:20;;;;;;;10.00;2.88;;;7.70;73.30;;;;;;5100727;28;20168;-81
2021/11/26 08:48:46;;;;;;;10.93;3.50;;;7.80;73.20;;;;;;5083023;28;20544;-81
2021/11/26 08:51:13;;;;;;;11.25;3.33;;;7.90;72.40;;;;;;5100771;28;20213;-81
2021/11/26 08:53:49;;;;;;;15.05;2.85;;;7.90;72.80;;;;;;5082418;28;20199;-81
2021/11/26 08:56:16;;;;;;;13.55;3.15;;;8.00;72.10;;;;;;5082241;28;20546;-81
2021/11/26 08:58:45;;;;;;;18.08;3.45;;;7.90;70.80;;;;;;5082085;28;20206;-81
2021/11/26 09:01:11;;;;;;;7.07;3.55;;;8.00;71.30;;;;;;5099393;28;20695;-81
2021/11/26 09:03:37;;;;;;;9.90;2.90;;;7.80;70.30;;;;;;5099692;28;20184;-81
2021/11/26 09:06:04;;;;;;;8.43;3.07;;;7.70;70.50;;;;;;5081434;28;20459;-81
2021/11/26 09:08:30;;;;;;;10.18;3.15;;;7.90;70.80;;;;;;5081717;28;20183;-80
2021/11/26 09:10:57;;;;;;;9.20;3.28;;;7.90;70.70;;;;;;5100320;28;20191;-81
2021/11/26 09:13:23;;;;;;;8.60;3.42;;;7.90;71.40;;;;;;5081586;28;20540;-81
2021/11/26 09:15:49;;;;;;;7.25;3.35;;;8.10;71.70;;;;;;5100589;28;20187;-81
2021/11/26 09:18:17;;;;;;;11.30;2.75;;;8.10;70.50;;;;;;5084388;28;20176;-81
2021/11/26 09:20:45;;;;;;;17.73;4.88;;;8.10;70.40;;;;;;5094699;28;20170;-81
2021/11/26 09:23:11;;;;;;;10.55;3.33;;;8.10;70.40;;;;;;5095288;28;20233;-82
2021/11/26 09:25:37;;;;;;;11.02;3.45;;;8.10;69.70;;;;;;5095840;28;20203;-82
2021/11/26 09:28:04;;;;;;;8.20;3.20;;;8.30;71.70;;;;;;5082559;28;20168;-82
2021/11/26 09:30:31;;;;;;;15.75;3.15;;;8.30;70.20;;;;;;5101205;28;20258;-81
2021/11/26 09:32:58;;;;;;;12.77;3.25;;;8.30;69.60;;;;;;5084242;28;20233;-82
2021/11/26 09:35:26;;;;;;;9.30;3.38;;;8.50;71.50;;;;;;5085756;28;20286;-81
2021/11/26 09:37:52;;;;;;;8.55;3.28;;;8.40;68.50;;;;;;5086043;28;20548;-82
2021/11/26 09:40:19;;;;;;;5.28;2.53;;;8.60;68.80;;;;;;5084316;28;20183;-82
2021/11/26 09:42:45;;;;;;;11.45;3.83;;;8.60;69.70;;;;;;5099726;28;20670;-81
2021/11/26 09:45:16;;;;;;;13.82;3.60;;;8.40;68.30;;;;;;5081772;28;20204;-81
2021/11/26 09:47:42;;;;;;;11.40;3.13;;;8.50;68.40;;;;;;5083059;28;20183;-81
2021/11/26 09:50:08;;;;;;;7.10;3.80;;;8.40;68.50;;;;;;5083936;28;20164;-82
2021/11/26 09:52:42;;;;;;;10.50;3.50;;;8.20;68.30;;;;;;5082281;28;20494;-81
2021/11/26 09:55:09;;;;;;;8.43;3.45;;;8.30;69.70;;;;;;5100329;28;20253;-81
2021/11/26 09:57:35;;;;;;;12.93;3.70;;;8.40;70.80;;;;;;5093248;28;20202;-81
2021/11/26 10:00:04;;;;;;;7.67;3.60;;;8.40;70.00;;;;;;5116558;28;20176;-81
2021/11/26 10:02:30;;;;;;;9.68;2.80;;;8.60;70.70;;;;;;5115455;28;20518;-81
2021/11/26 10:05:05;;;;;;;12.73;2.97;;;8.50;69.40;;;;;;5091139;28;20286;-82
2021/11/26 10:07:42;;;;;;;9.95;2.55;;;8.60;70.70;;;;;;5079021;28;20507;-82
2021/11/26 10:10:09;;;;;;;5.32;2.63;;;8.80;70.00;;;;;;5096269;28;20160;-81
2021/11/26 10:12:35;;;;;;;5.65;2.40;;;8.80;69.20;;;;;;5060034;28;20186;-82
2021/11/26 10:15:01;;;;;;;5.63;3.10;;;8.90;69.90;;;;;;5094068;28;20211;-82
2021/11/26 10:17:27;;;;;;;6.03;2.92;;;8.80;69.10;;;;;;5080634;28;20425;-83
2021/11/26 10:19:56;;;;;;;4.97;3.45;;;8.90;70.10;;;;;;5096561;28;20207;-81
2021/11/26 10:22:31;;;;;;;9.05;3.47;;;8.90;69.70;;;;;;5077462;28;20295;-81
2021/11/26 10:25:18;;;;;;;8.43;3.65;;;8.90;70.20;;;;;;5095715;28;20219;-82
2021/11/26 10:27:56;;;;;;;8.48;2.50;;;8.80;70.60;;;;;;5078130;28;20168;-82
2021/11/26 10:30:39;;;;;;;8.93;3.33;;;8.70;70.00;;;;;;5078178;28;20548;-82
2021/11/26 10:33:07;;;;;;;11.65;3.85;;;8.70;70.50;;;;;;5100995;28;20258;-81
2021/11/26 10:35:39;;;;;;;9.82;2.33;;;8.60;71.40;;;;;;5077766;28;20286;-81
2021/11/26 10:38:08;;;;;;;8.43;3.15;;;8.70;72.20;;;;;;5079293;28;20228;-81
2021/11/26 10:40:38;;;;;;;10.27;3.70;;;8.80;71.90;;;;;;5074597;28;20644;-81
2021/11/26 10:43:10;;;;;;;8.05;3.00;;;8.90;72.20;;;;;;5063289;28;20215;-81
2021/11/26 10:59:37;;;;;;;9.25;3.40;;;8.80;73.00;;;;;;5105906;28;20212;-81
2021/11/26 11:02:03;;;;;;;9.40;3.33;;;8.80;73.00;;;;;;5086812;28;20203;-81
2021/11/26 11:04:30;;;;;;;15.17;2.83;;;8.70;72.90;;;;;;5083236;28;20545;-81
2021/11/26 11:07:08;;;;;;;9.00;3.30;;;8.70;73.40;;;;;;5101815;28;20406;-81
2021/11/26 11:09:46;;;;;;;6.93;3.10;;;8.70;73.60;;;;;;5082873;28;20174;-81
2021/11/26 11:12:14;;;;;;;9.48;3.55;;;8.60;73.00;;;;;;5082939;28;20179;-81
2021/11/26 11:14:51;;;;;;;5.28;2.75;;;8.50;73.40;;;;;;5082073;28;20260;-81
2021/11/26 11:17:19;;;;;;;8.27;2.40;;;8.10;73.20;;;;;;5101200;28;20238;-81
2021/11/26 11:19:45;;;;;;;9.98;2.65;;;8.00;74.20;;;;;;5082713;28;20184;-82
2021/11/26 11:22:11;;;;;;;6.78;2.75;;;7.90;75.60;;;;;;5084248;28;20228;-82
2021/11/26 11:24:38;;;;;;;12.10;2.80;;;7.90;75.20;;;;;;5090902;28;20273;-82
2021/11/26 11:27:04;;;;;;;9.98;3.33;;;7.70;75.70;;;;;;5098817;28;20203;-82
2021/11/26 11:29:30;;;;;;;7.00;3.03;;;7.80;76.20;;;;;;5111433;28;20210;-82
2021/11/26 11:31:58;;;;;;;5.10;2.30;;;8.20;77.00;;;;;;5115942;28;20180;-82
2021/11/26 11:34:27;;;;;;;5.90;3.20;;;8.00;76.00;;;;;;5097410;28;20445;-82
2021/11/26 11:36:55;;;;;;;9.82;2.67;;;8.10;76.20;;;;;;5097445;28;20198;-82
2021/11/26 11:39:21;;;;;;;5.60;2.50;;;7.70;75.90;;;;;;5088914;28;20191;-82
2021/11/26 11:41:55;;;;;;;5.88;3.03;;;7.60;76.50;;;;;;5088201;28;20192;-81
2021/11/26 11:44:44;;;;;;;5.82;2.80;;;7.80;77.30;;;;;;5102333;28;20682;-82
2021/11/26 11:47:19;;;;;;;5.65;2.38;;;7.80;77.30;;;;;;5083347;28;20164;-82
2021/11/26 11:49:45;;;;;;;6.75;2.47;;;8.00;77.30;;;;;;5084385;28;20179;-82
2021/11/26 11:52:12;;;;;;;6.65;3.03;;;8.20;76.80;;;;;;5102636;28;20646;-82
2021/11/26 11:54:48;;;;;;;4.95;2.80;;;8.10;76.30;;;;;;5083682;28;20203;-82
2021/11/26 11:57:22;;;;;;;4.95;2.88;;;8.10;75.30;;;;;;5083278;28;20642;-82
2021/11/26 11:59:50;;;;;;;7.82;3.45;;;8.10;75.80;;;;;;5101674;28;20621;-82
2021/11/26 12:02:25;;;;;;;1.95;1.85;;;7.80;75.30;;;;;;5101845;28;20282;-82
2021/11/26 12:04:53;;;;;;;5.53;2.72;;;7.60;76.20;;;;;;5082875;28;20196;-81
2021/11/26 12:07:28;;;;;;;3.15;2.20;;;7.70;77.50;;;;;;5101220;28;20188;-82
2021/11/26 12:10:04;;;;;;;6.35;2.78;;;7.80;77.90;;;;;;5101615;28;20155;-82
2021/11/26 12:12:31;;;;;;;10.48;2.45;;;7.90;77.60;;;;;;5083507;28;20199;-82
2021/11/26 12:14:58;;;;;;;4.20;2.47;;;8.00;77.10;;;;;;5082256;28;20238;-82
2021/11/26 12:17:32;;;;;;;8.93;3.78;;;7.70;76.30;;;;;;5100773;28;20660;-82
2021/11/26 12:20:23;;;;;;;5.32;2.60;;;7.20;77.30;;;;;;5100742;28;20172;-82
2021/11/26 12:22:59;;;;;;;6.03;2.65;;;6.90;78.80;;;;;;5082178;28;20282;-82
2021/11/26 12:28:11;;;;;;;5.93;2.83;;;6.20;81.80;;;;;;5083777;28;20176;-82
2021/11/26 12:30:41;;;;;;;5.35;3.10;;;6.10;83.20;;;;;;5082693;28;20168;-82
2021/11/26 12:33:17;;;;;;;12.07;3.45;;;5.90;83.90;;;;;;5081585;28;20183;-81
2021/11/26 12:36:14;;;;;;;8.70;3.20;;;5.90;84.50;;;;;;5082140;28;20612;-82
2021/11/26 12:38:44;;;;;;;4.03;3.60;;;6.00;84.60;;;;;;5082660;28;20195;-82
2021/11/26 12:41:12;;;;;;;4.38;2.90;;;6.10;84.90;;;;;;5095134;28;20267;-82
2021/11/26 12:43:42;;;;;;;8.63;3.95;;;6.20;84.80;;;;;;5082017;28;20207;-82
2021/11/26 12:46:21;;;;;;;5.03;3.33;;;6.00;84.70;;;;;;5082116;28;20176;-82
2021/11/26 12:49:13;;;;;;;9.80;4.18;;;6.10;85.40;;;;;;5081788;28;20564;-82
2021/11/26 12:51:42;;;;;;;14.30;4.40;;;6.00;85.20;;;;;;5082342;28;20548;-82
2021/11/26 12:54:20;;;;;;;8.40;3.85;;;6.10;85.20;;;;;;5080476;28;20211;-82
2021/11/26 12:56:46;;;;;;;13.25;4.28;;;6.00;85.20;;;;;;5081291;28;20171;-81
2021/11/26 12:59:12;;;;;;;6.25;3.92;;;5.90;85.30;;;;;;5081357;28;20669;-81
2021/11/26 13:01:50;;;;;;;9.20;4.17;;;6.00;85.50;;;;;;5099370;28;20200;-82
2021/11/26 13:04:16;;;;;;;8.18;4.13;;;6.00;85.80;;;;;;5080760;28;20294;-82
2021/11/26 13:06:42;;;;;;;7.40;4.70;;;6.00;85.30;;;;;;5099001;28;20203;-82
2021/11/26 13:09:08;;;;;;;7.83;6.47;;;6.10;86.00;;;;;;5079943;28;20225;-82
2021/11/26 13:11:38;;;;;;;8.60;5.15;;;5.90;85.70;;;;;;5079566;28;20214;-82